sensor_id;sensor_type;location;lat;lon;timestamp;P1;durP1;ratioP1;P2;durP2;ratioP2
3185;SDS011;1604;53.700;10.252;2023-08-06T00:00:37;8.87;;;4.20;;
3185;SDS011;1604;53.700;10.252;2023-08-06T00:03:42;4.50;;;4.10;;
3185;SDS011;1604;53.700;10.252;2023-08-06T00:06:44;5.20;;;4.50;;
3185;SDS011;1604;53.700;10.252;2023-08-06T00:09:46;4.33;;;4.03;;
3185;SDS011;1604;53.700;10.252;2023-08-06T00:12:48;5.50;;;3.57;;
3185;SDS011;1604;53.700;10.252;2023-08-06T00:15:50;4.23;;;3.83;;
3185;SDS011;1604;53.700;10.252;2023-08-06T00:18:53;9.60;;;4.30;;
3185;SDS011;1604;53.700;10.252;2023-08-06T00:21:57;9.10;;;4.40;;
3185;SDS011;1604;53.700;10.252;2023-08-06T00:24:59;4.53;;;4.23;;
3185;SDS011;1604;53.700;10.252;2023-08-06T00:28:01;4.60;;;4.30;;
3185;SDS011;1604;53.700;10.252;2023-08-06T00:31:03;5.33;;;4.60;;
3185;SDS011;1604;53.700;10.252;2023-08-06T00:34:09;5.63;;;4.93;;
3185;SDS011;1604;53.700;10.252;2023-08-06T00:37:11;5.10;;;4.60;;
3185;SDS011;1604;53.700;10.252;2023-08-06T00:40:13;4.60;;;4.30;;
3185;SDS011;1604;53.700;10.252;2023-08-06T00:43:15;7.47;;;4.13;;
3185;SDS011;1604;53.700;10.252;2023-08-06T00:46:17;6.00;;;4.70;;
3185;SDS011;1604;53.700;10.252;2023-08-06T00:49:23;5.27;;;4.70;;
3185;SDS011;1604;53.700;10.252;2023-08-06T00:52:25;6.30;;;4.40;;
3185;SDS011;1604;53.700;10.252;2023-08-06T00:55:27;7.30;;;4.47;;
3185;SDS011;1604;53.700;10.252;2023-08-06T00:58:30;6.93;;;4.73;;
3185;SDS011;1604;53.700;10.252;2023-08-06T01:01:32;5.00;;;4.60;;
3185;SDS011;1604;53.700;10.252;2023-08-06T01:04:35;6.17;;;5.57;;
3185;SDS011;1604;53.700;10.252;2023-08-06T01:07:43;5.53;;;4.50;;
3185;SDS011;1604;53.700;10.252;2023-08-06T01:10:57;6.50;;;5.90;;
3185;SDS011;1604;53.700;10.252;2023-08-06T01:14:12;10.17;;;4.83;;
3185;SDS011;1604;53.700;10.252;2023-08-06T01:17:20;6.60;;;5.50;;
3185;SDS011;1604;53.700;10.252;2023-08-06T01:20:28;5.30;;;4.80;;
3185;SDS011;1604;53.700;10.252;2023-08-06T01:23:30;4.93;;;4.47;;
3185;SDS011;1604;53.700;10.252;2023-08-06T01:26:33;7.03;;;4.80;;
3185;SDS011;1604;53.700;10.252;2023-08-06T01:29:41;8.20;;;5.07;;
3185;SDS011;1604;53.700;10.252;2023-08-06T01:32:49;5.17;;;4.77;;
3185;SDS011;1604;53.700;10.252;2023-08-06T01:35:54;6.13;;;4.20;;
3185;SDS011;1604;53.700;10.252;2023-08-06T01:38:58;5.80;;;5.13;;
3185;SDS011;1604;53.700;10.252;2023-08-06T01:42:00;6.13;;;5.33;;
3185;SDS011;1604;53.700;10.252;2023-08-06T01:45:02;5.00;;;4.50;;
3185;SDS011;1604;53.700;10.252;2023-08-06T01:48:05;18.83;;;5.00;;
3185;SDS011;1604;53.700;10.252;2023-08-06T01:51:08;6.33;;;5.73;;
3185;SDS011;1604;53.700;10.252;2023-08-06T01:54:10;6.40;;;5.53;;
3185;SDS011;1604;53.700;10.252;2023-08-06T01:57:12;6.33;;;5.73;;
3185;SDS011;1604;53.700;10.252;2023-08-06T02:00:15;5.20;;;4.80;;
3185;SDS011;1604;53.700;10.252;2023-08-06T02:03:17;6.83;;;5.70;;
3185;SDS011;1604;53.700;10.252;2023-08-06T02:06:21;6.93;;;5.53;;
3185;SDS011;1604;53.700;10.252;2023-08-06T02:09:22;12.50;;;5.87;;
3185;SDS011;1604;53.700;10.252;2023-08-06T02:12:24;6.60;;;5.90;;
3185;SDS011;1604;53.700;10.252;2023-08-06T02:15:27;6.00;;;5.40;;
3185;SDS011;1604;53.700;10.252;2023-08-06T02:18:29;6.03;;;5.63;;
3185;SDS011;1604;53.700;10.252;2023-08-06T02:21:32;7.93;;;6.20;;
3185;SDS011;1604;53.700;10.252;2023-08-06T02:24:34;6.07;;;5.57;;
3185;SDS011;1604;53.700;10.252;2023-08-06T02:27:36;6.73;;;5.70;;
3185;SDS011;1604;53.700;10.252;2023-08-06T02:30:38;13.30;;;6.73;;
3185;SDS011;1604;53.700;10.252;2023-08-06T02:33:40;6.60;;;6.10;;
3185;SDS011;1604;53.700;10.252;2023-08-06T02:36:49;7.97;;;5.80;;
3185;SDS011;1604;53.700;10.252;2023-08-06T02:39:51;6.23;;;5.73;;
3185;SDS011;1604;53.700;10.252;2023-08-06T02:42:53;7.37;;;5.20;;
3185;SDS011;1604;53.700;10.252;2023-08-06T02:45:56;6.43;;;5.67;;
3185;SDS011;1604;53.700;10.252;2023-08-06T02:49:01;7.03;;;6.43;;
3185;SDS011;1604;53.700;10.252;2023-08-06T02:52:05;10.63;;;5.70;;
3185;SDS011;1604;53.700;10.252;2023-08-06T02:55:07;6.30;;;5.50;;
3185;SDS011;1604;53.700;10.252;2023-08-06T02:58:09;7.00;;;5.70;;
3185;SDS011;1604;53.700;10.252;2023-08-06T03:01:11;5.73;;;4.93;;
3185;SDS011;1604;53.700;10.252;2023-08-06T03:04:14;7.93;;;5.10;;
3185;SDS011;1604;53.700;10.252;2023-08-06T03:07:19;7.90;;;5.80;;
3185;SDS011;1604;53.700;10.252;2023-08-06T03:10:21;7.80;;;5.63;;
3185;SDS011;1604;53.700;10.252;2023-08-06T03:13:23;10.40;;;5.10;;
3185;SDS011;1604;53.700;10.252;2023-08-06T03:16:25;6.77;;;5.53;;
3185;SDS011;1604;53.700;10.252;2023-08-06T03:19:27;8.40;;;5.53;;
3185;SDS011;1604;53.700;10.252;2023-08-06T03:22:30;7.03;;;5.43;;
3185;SDS011;1604;53.700;10.252;2023-08-06T03:25:34;9.30;;;6.70;;
3185;SDS011;1604;53.700;10.252;2023-08-06T03:28:36;7.67;;;5.30;;
3185;SDS011;1604;53.700;10.252;2023-08-06T03:31:38;5.37;;;4.87;;
3185;SDS011;1604;53.700;10.252;2023-08-06T03:34:40;6.17;;;5.60;;
3185;SDS011;1604;53.700;10.252;2023-08-06T03:37:43;6.50;;;5.20;;
3185;SDS011;1604;53.700;10.252;2023-08-06T03:40:46;11.73;;;5.30;;
3185;SDS011;1604;53.700;10.252;2023-08-06T03:43:49;10.10;;;5.30;;
3185;SDS011;1604;53.700;10.252;2023-08-06T03:46:51;20.03;;;5.37;;
3185;SDS011;1604;53.700;10.252;2023-08-06T03:49:53;5.43;;;5.03;;
3185;SDS011;1604;53.700;10.252;2023-08-06T03:52:57;13.87;;;5.97;;
3185;SDS011;1604;53.700;10.252;2023-08-06T03:56:01;6.07;;;4.70;;
3185;SDS011;1604;53.700;10.252;2023-08-06T03:59:03;8.93;;;4.80;;
3185;SDS011;1604;53.700;10.252;2023-08-06T04:02:05;10.17;;;5.67;;
3185;SDS011;1604;53.700;10.252;2023-08-06T04:05:08;7.43;;;5.33;;
3185;SDS011;1604;53.700;10.252;2023-08-06T04:08:11;5.63;;;4.47;;
3185;SDS011;1604;53.700;10.252;2023-08-06T04:11:13;7.83;;;5.43;;
3185;SDS011;1604;53.700;10.252;2023-08-06T04:14:15;6.33;;;5.70;;
3185;SDS011;1604;53.700;10.252;2023-08-06T04:17:17;8.70;;;6.00;;
3185;SDS011;1604;53.700;10.252;2023-08-06T04:20:21;7.93;;;5.97;;
3185;SDS011;1604;53.700;10.252;2023-08-06T04:23:24;10.03;;;6.13;;
3185;SDS011;1604;53.700;10.252;2023-08-06T04:26:26;9.50;;;5.67;;
3185;SDS011;1604;53.700;10.252;2023-08-06T04:29:28;12.40;;;6.10;;
3185;SDS011;1604;53.700;10.252;2023-08-06T04:32:30;9.40;;;6.10;;
3185;SDS011;1604;53.700;10.252;2023-08-06T04:35:32;11.20;;;6.33;;
3185;SDS011;1604;53.700;10.252;2023-08-06T04:38:38;6.63;;;5.67;;
3185;SDS011;1604;53.700;10.252;2023-08-06T04:41:41;10.20;;;5.60;;
3185;SDS011;1604;53.700;10.252;2023-08-06T04:44:43;13.30;;;5.70;;
3185;SDS011;1604;53.700;10.252;2023-08-06T04:47:45;6.67;;;6.07;;
3185;SDS011;1604;53.700;10.252;2023-08-06T04:50:48;12.23;;;6.87;;
3185;SDS011;1604;53.700;10.252;2023-08-06T04:53:52;9.10;;;6.27;;
3185;SDS011;1604;53.700;10.252;2023-08-06T04:56:54;6.97;;;5.20;;
3185;SDS011;1604;53.700;10.252;2023-08-06T04:59:56;8.00;;;6.13;;
3185;SDS011;1604;53.700;10.252;2023-08-06T05:02:59;6.43;;;5.77;;
3185;SDS011;1604;53.700;10.252;2023-08-06T05:06:01;7.07;;;6.47;;
3185;SDS011;1604;53.700;10.252;2023-08-06T05:09:04;9.93;;;6.13;;
3185;SDS011;1604;53.700;10.252;2023-08-06T05:12:07;9.00;;;6.70;;
3185;SDS011;1604;53.700;10.252;2023-08-06T05:15:10;11.00;;;5.70;;
3185;SDS011;1604;53.700;10.252;2023-08-06T05:18:12;10.43;;;6.83;;
3185;SDS011;1604;53.700;10.252;2023-08-06T05:21:14;7.20;;;5.83;;
3185;SDS011;1604;53.700;10.252;2023-08-06T05:24:17;13.33;;;5.80;;
3185;SDS011;1604;53.700;10.252;2023-08-06T05:27:22;9.00;;;5.70;;
3185;SDS011;1604;53.700;10.252;2023-08-06T05:30:24;9.43;;;5.70;;
3185;SDS011;1604;53.700;10.252;2023-08-06T05:33:26;8.03;;;6.43;;
3185;SDS011;1604;53.700;10.252;2023-08-06T05:36:31;7.77;;;6.97;;
3185;SDS011;1604;53.700;10.252;2023-08-06T05:39:34;10.40;;;7.43;;
3185;SDS011;1604;53.700;10.252;2023-08-06T05:42:36;7.10;;;6.33;;
3185;SDS011;1604;53.700;10.252;2023-08-06T05:45:38;7.10;;;5.40;;
3185;SDS011;1604;53.700;10.252;2023-08-06T05:48:40;7.47;;;6.60;;
3185;SDS011;1604;53.700;10.252;2023-08-06T05:51:42;6.57;;;5.97;;
3185;SDS011;1604;53.700;10.252;2023-08-06T05:54:45;17.10;;;6.90;;
3185;SDS011;1604;53.700;10.252;2023-08-06T05:57:47;7.77;;;6.40;;
3185;SDS011;1604;53.700;10.252;2023-08-06T06:00:49;11.20;;;5.77;;
3185;SDS011;1604;53.700;10.252;2023-08-06T06:03:50;7.90;;;7.10;;
3185;SDS011;1604;53.700;10.252;2023-08-06T06:06:52;8.60;;;6.53;;
3185;SDS011;1604;53.700;10.252;2023-08-06T06:09:56;8.47;;;7.30;;
3185;SDS011;1604;53.700;10.252;2023-08-06T06:12:57;10.80;;;6.90;;
3185;SDS011;1604;53.700;10.252;2023-08-06T06:15:59;7.67;;;6.73;;
3185;SDS011;1604;53.700;10.252;2023-08-06T06:19:01;12.20;;;6.70;;
3185;SDS011;1604;53.700;10.252;2023-08-06T06:22:03;11.57;;;5.87;;
3185;SDS011;1604;53.700;10.252;2023-08-06T06:25:07;8.40;;;7.50;;
3185;SDS011;1604;53.700;10.252;2023-08-06T06:28:09;9.20;;;6.53;;
3185;SDS011;1604;53.700;10.252;2023-08-06T06:31:11;10.43;;;7.27;;
3185;SDS011;1604;53.700;10.252;2023-08-06T06:34:13;10.87;;;6.30;;
3185;SDS011;1604;53.700;10.252;2023-08-06T06:37:15;10.87;;;6.70;;
3185;SDS011;1604;53.700;10.252;2023-08-06T06:40:19;8.67;;;6.23;;
3185;SDS011;1604;53.700;10.252;2023-08-06T06:43:21;9.50;;;6.60;;
3185;SDS011;1604;53.700;10.252;2023-08-06T06:46:23;12.33;;;8.30;;
3185;SDS011;1604;53.700;10.252;2023-08-06T06:49:25;9.07;;;6.60;;
3185;SDS011;1604;53.700;10.252;2023-08-06T06:52:27;8.73;;;7.83;;
3185;SDS011;1604;53.700;10.252;2023-08-06T06:55:30;15.27;;;7.97;;
3185;SDS011;1604;53.700;10.252;2023-08-06T06:58:32;9.23;;;7.30;;
3185;SDS011;1604;53.700;10.252;2023-08-06T07:01:34;15.23;;;8.40;;
3185;SDS011;1604;53.700;10.252;2023-08-06T07:04:36;8.17;;;6.80;;
3185;SDS011;1604;53.700;10.252;2023-08-06T07:07:38;10.90;;;7.10;;
3185;SDS011;1604;53.700;10.252;2023-08-06T07:10:41;7.70;;;7.00;;
3185;SDS011;1604;53.700;10.252;2023-08-06T07:13:44;8.83;;;7.93;;
3185;SDS011;1604;53.700;10.252;2023-08-06T07:16:46;9.27;;;6.97;;
3185;SDS011;1604;53.700;10.252;2023-08-06T07:19:48;9.83;;;6.77;;
3185;SDS011;1604;53.700;10.252;2023-08-06T07:22:50;9.43;;;7.40;;
3185;SDS011;1604;53.700;10.252;2023-08-06T07:25:54;13.53;;;7.60;;
3185;SDS011;1604;53.700;10.252;2023-08-06T07:28:55;10.17;;;6.93;;
3185;SDS011;1604;53.700;10.252;2023-08-06T07:31:57;7.50;;;6.90;;
3185;SDS011;1604;53.700;10.252;2023-08-06T07:34:59;10.10;;;7.30;;
3185;SDS011;1604;53.700;10.252;2023-08-06T07:38:05;8.87;;;8.07;;
3185;SDS011;1604;53.700;10.252;2023-08-06T07:41:09;10.50;;;7.40;;
3185;SDS011;1604;53.700;10.252;2023-08-06T07:44:11;17.47;;;7.60;;
3185;SDS011;1604;53.700;10.252;2023-08-06T07:47:13;12.17;;;8.53;;
3185;SDS011;1604;53.700;10.252;2023-08-06T07:50:15;15.80;;;7.47;;
3185;SDS011;1604;53.700;10.252;2023-08-06T07:53:16;14.43;;;7.07;;
3185;SDS011;1604;53.700;10.252;2023-08-06T07:56:20;9.70;;;7.27;;
3185;SDS011;1604;53.700;10.252;2023-08-06T07:59:22;9.90;;;6.93;;
3185;SDS011;1604;53.700;10.252;2023-08-06T08:02:24;10.93;;;7.23;;
3185;SDS011;1604;53.700;10.252;2023-08-06T08:05:26;9.97;;;8.23;;
3185;SDS011;1604;53.700;10.252;2023-08-06T08:08:27;9.67;;;7.33;;
3185;SDS011;1604;53.700;10.252;2023-08-06T08:11:31;9.17;;;8.17;;
3185;SDS011;1604;53.700;10.252;2023-08-06T08:14:33;8.43;;;7.40;;
3185;SDS011;1604;53.700;10.252;2023-08-06T08:17:36;15.13;;;7.73;;
3185;SDS011;1604;53.700;10.252;2023-08-06T08:20:38;19.77;;;7.93;;
3185;SDS011;1604;53.700;10.252;2023-08-06T08:23:39;11.53;;;9.00;;
3185;SDS011;1604;53.700;10.252;2023-08-06T08:26:43;11.20;;;9.50;;
3185;SDS011;1604;53.700;10.252;2023-08-06T08:29:45;8.30;;;7.50;;
3185;SDS011;1604;53.700;10.252;2023-08-06T08:32:47;7.97;;;7.27;;
3185;SDS011;1604;53.700;10.252;2023-08-06T08:35:49;12.53;;;9.13;;
3185;SDS011;1604;53.700;10.252;2023-08-06T08:38:51;10.37;;;8.50;;
3185;SDS011;1604;53.700;10.252;2023-08-06T08:41:55;16.77;;;9.00;;
3185;SDS011;1604;53.700;10.252;2023-08-06T08:44:57;9.13;;;8.13;;
3185;SDS011;1604;53.700;10.252;2023-08-06T08:47:59;8.90;;;7.87;;
3185;SDS011;1604;53.700;10.252;2023-08-06T08:51:02;22.47;;;8.23;;
3185;SDS011;1604;53.700;10.252;2023-08-06T08:54:05;10.37;;;8.30;;
3185;SDS011;1604;53.700;10.252;2023-08-06T08:57:11;9.27;;;8.37;;
3185;SDS011;1604;53.700;10.252;2023-08-06T09:00:14;15.93;;;9.53;;
3185;SDS011;1604;53.700;10.252;2023-08-06T09:03:16;8.10;;;6.60;;
3185;SDS011;1604;53.700;10.252;2023-08-06T09:06:18;14.73;;;8.40;;
3185;SDS011;1604;53.700;10.252;2023-08-06T09:09:22;14.70;;;8.53;;
3185;SDS011;1604;53.700;10.252;2023-08-06T09:12:30;12.23;;;7.80;;
3185;SDS011;1604;53.700;10.252;2023-08-06T09:15:33;8.83;;;7.90;;
3185;SDS011;1604;53.700;10.252;2023-08-06T09:18:35;9.90;;;8.10;;
3185;SDS011;1604;53.700;10.252;2023-08-06T09:21:41;10.53;;;8.30;;
3185;SDS011;1604;53.700;10.252;2023-08-06T09:24:43;12.43;;;7.93;;
3185;SDS011;1604;53.700;10.252;2023-08-06T09:27:47;11.50;;;7.97;;
3185;SDS011;1604;53.700;10.252;2023-08-06T09:30:52;11.70;;;7.30;;
3185;SDS011;1604;53.700;10.252;2023-08-06T09:33:59;13.20;;;8.10;;
3185;SDS011;1604;53.700;10.252;2023-08-06T09:37:02;14.37;;;8.50;;
3185;SDS011;1604;53.700;10.252;2023-08-06T09:40:20;20.33;;;8.23;;
3185;SDS011;1604;53.700;10.252;2023-08-06T09:43:28;9.80;;;7.90;;
3185;SDS011;1604;53.700;10.252;2023-08-06T09:46:35;13.87;;;8.70;;
3185;SDS011;1604;53.700;10.252;2023-08-06T09:49:41;13.53;;;7.70;;
3185;SDS011;1604;53.700;10.252;2023-08-06T09:52:45;12.57;;;8.30;;
3185;SDS011;1604;53.700;10.252;2023-08-06T09:55:48;11.03;;;7.67;;
3185;SDS011;1604;53.700;10.252;2023-08-06T09:58:52;10.93;;;8.37;;
3185;SDS011;1604;53.700;10.252;2023-08-06T10:01:55;13.30;;;8.57;;
3185;SDS011;1604;53.700;10.252;2023-08-06T10:04:57;12.10;;;7.80;;
3185;SDS011;1604;53.700;10.252;2023-08-06T10:08:00;8.83;;;7.87;;
3185;SDS011;1604;53.700;10.252;2023-08-06T10:11:05;8.90;;;7.80;;
3185;SDS011;1604;53.700;10.252;2023-08-06T10:14:10;9.53;;;8.53;;
3185;SDS011;1604;53.700;10.252;2023-08-06T10:17:18;12.97;;;9.87;;
3185;SDS011;1604;53.700;10.252;2023-08-06T10:20:20;11.13;;;9.57;;
3185;SDS011;1604;53.700;10.252;2023-08-06T10:23:32;9.50;;;8.50;;
3185;SDS011;1604;53.700;10.252;2023-08-06T10:26:35;9.37;;;8.47;;
3185;SDS011;1604;53.700;10.252;2023-08-06T10:29:39;13.07;;;8.93;;
3185;SDS011;1604;53.700;10.252;2023-08-06T10:32:47;12.60;;;9.37;;
3185;SDS011;1604;53.700;10.252;2023-08-06T10:35:50;11.87;;;8.20;;
3185;SDS011;1604;53.700;10.252;2023-08-06T10:38:54;9.30;;;8.30;;
3185;SDS011;1604;53.700;10.252;2023-08-06T10:41:59;9.13;;;8.23;;
3185;SDS011;1604;53.700;10.252;2023-08-06T10:45:13;14.73;;;9.20;;
3185;SDS011;1604;53.700;10.252;2023-08-06T10:48:19;10.90;;;8.00;;
3185;SDS011;1604;53.700;10.252;2023-08-06T10:51:31;10.03;;;9.10;;
3185;SDS011;1604;53.700;10.252;2023-08-06T10:54:33;10.63;;;9.47;;
3185;SDS011;1604;53.700;10.252;2023-08-06T10:57:35;14.60;;;8.50;;
3185;SDS011;1604;53.700;10.252;2023-08-06T11:00:39;8.80;;;7.87;;
3185;SDS011;1604;53.700;10.252;2023-08-06T11:03:41;12.10;;;7.50;;
3185;SDS011;1604;53.700;10.252;2023-08-06T11:06:43;12.90;;;8.20;;
3185;SDS011;1604;53.700;10.252;2023-08-06T11:09:49;8.33;;;7.63;;
3185;SDS011;1604;53.700;10.252;2023-08-06T11:12:52;11.50;;;9.20;;
3185;SDS011;1604;53.700;10.252;2023-08-06T11:15:55;10.63;;;9.63;;
3185;SDS011;1604;53.700;10.252;2023-08-06T11:18:58;9.97;;;8.97;;
3185;SDS011;1604;53.700;10.252;2023-08-06T11:22:00;9.23;;;8.37;;
3185;SDS011;1604;53.700;10.252;2023-08-06T11:25:02;10.20;;;7.97;;
3185;SDS011;1604;53.700;10.252;2023-08-06T11:28:05;9.97;;;8.57;;
3185;SDS011;1604;53.700;10.252;2023-08-06T11:31:08;8.97;;;8.20;;
3185;SDS011;1604;53.700;10.252;2023-08-06T11:34:20;15.47;;;9.73;;
3185;SDS011;1604;53.700;10.252;2023-08-06T11:37:25;9.60;;;8.20;;
3185;SDS011;1604;53.700;10.252;2023-08-06T11:40:27;10.13;;;9.27;;
3185;SDS011;1604;53.700;10.252;2023-08-06T11:43:30;9.60;;;8.60;;
3185;SDS011;1604;53.700;10.252;2023-08-06T11:49:55;9.90;;;8.90;;
3185;SDS011;1604;53.700;10.252;2023-08-06T11:52:58;9.43;;;7.30;;
3185;SDS011;1604;53.700;10.252;2023-08-06T11:56:01;9.37;;;7.40;;
3185;SDS011;1604;53.700;10.252;2023-08-06T11:59:03;9.53;;;8.23;;
3185;SDS011;1604;53.700;10.252;2023-08-06T12:02:09;8.73;;;7.80;;
3185;SDS011;1604;53.700;10.252;2023-08-06T12:05:12;9.17;;;7.60;;
3185;SDS011;1604;53.700;10.252;2023-08-06T12:08:14;9.70;;;7.57;;
3185;SDS011;1604;53.700;10.252;2023-08-06T12:11:20;17.47;;;10.30;;
3185;SDS011;1604;53.700;10.252;2023-08-06T12:14:23;20.47;;;15.23;;
3185;SDS011;1604;53.700;10.252;2023-08-06T12:17:27;14.60;;;9.00;;
3185;SDS011;1604;53.700;10.252;2023-08-06T12:20:28;14.63;;;8.40;;
3185;SDS011;1604;53.700;10.252;2023-08-06T12:23:30;10.83;;;8.90;;
3185;SDS011;1604;53.700;10.252;2023-08-06T12:26:33;12.83;;;7.50;;
3185;SDS011;1604;53.700;10.252;2023-08-06T12:29:35;11.83;;;6.53;;
3185;SDS011;1604;53.700;10.252;2023-08-06T12:32:38;7.23;;;6.53;;
3185;SDS011;1604;53.700;10.252;2023-08-06T12:35:40;12.43;;;6.77;;
3185;SDS011;1604;53.700;10.252;2023-08-06T12:38:42;10.37;;;6.57;;
3185;SDS011;1604;53.700;10.252;2023-08-06T12:41:44;8.80;;;5.77;;
3185;SDS011;1604;53.700;10.252;2023-08-06T12:44:47;9.13;;;5.30;;
3185;SDS011;1604;53.700;10.252;2023-08-06T12:47:51;6.20;;;5.70;;
3185;SDS011;1604;53.700;10.252;2023-08-06T12:50:53;7.17;;;4.93;;
3185;SDS011;1604;53.700;10.252;2023-08-06T12:53:55;5.47;;;4.97;;
3185;SDS011;1604;53.700;10.252;2023-08-06T12:56:57;5.17;;;4.53;;
3185;SDS011;1604;53.700;10.252;2023-08-06T12:59:59;9.20;;;5.77;;
3185;SDS011;1604;53.700;10.252;2023-08-06T13:03:02;5.87;;;4.10;;
3185;SDS011;1604;53.700;10.252;2023-08-06T13:06:04;5.93;;;4.23;;
3185;SDS011;1604;53.700;10.252;2023-08-06T13:09:06;3.80;;;3.50;;
3185;SDS011;1604;53.700;10.252;2023-08-06T13:12:08;16.00;;;4.80;;
3185;SDS011;1604;53.700;10.252;2023-08-06T13:15:10;6.10;;;3.00;;
3185;SDS011;1604;53.700;10.252;2023-08-06T13:18:13;5.03;;;4.13;;
3185;SDS011;1604;53.700;10.252;2023-08-06T13:21:15;5.17;;;4.30;;
3185;SDS011;1604;53.700;10.252;2023-08-06T13:24:17;4.67;;;4.20;;
3185;SDS011;1604;53.700;10.252;2023-08-06T13:27:20;5.20;;;3.80;;
3185;SDS011;1604;53.700;10.252;2023-08-06T13:30:22;5.10;;;4.70;;
3185;SDS011;1604;53.700;10.252;2023-08-06T13:33:25;6.93;;;3.97;;
3185;SDS011;1604;53.700;10.252;2023-08-06T13:36:28;4.80;;;4.23;;
3185;SDS011;1604;53.700;10.252;2023-08-06T13:39:30;4.53;;;4.17;;
3185;SDS011;1604;53.700;10.252;2023-08-06T13:42:32;6.73;;;4.20;;
3185;SDS011;1604;53.700;10.252;2023-08-06T13:45:34;4.90;;;4.03;;
3185;SDS011;1604;53.700;10.252;2023-08-06T13:48:38;8.10;;;3.60;;
3185;SDS011;1604;53.700;10.252;2023-08-06T13:51:40;4.73;;;3.60;;
3185;SDS011;1604;53.700;10.252;2023-08-06T13:54:41;5.37;;;3.67;;
3185;SDS011;1604;53.700;10.252;2023-08-06T13:57:43;4.23;;;3.83;;
3185;SDS011;1604;53.700;10.252;2023-08-06T14:00:45;9.87;;;4.00;;
3185;SDS011;1604;53.700;10.252;2023-08-06T14:03:48;4.20;;;3.90;;
3185;SDS011;1604;53.700;10.252;2023-08-06T14:06:50;3.87;;;3.47;;
3185;SDS011;1604;53.700;10.252;2023-08-06T14:09:52;4.03;;;3.00;;
3185;SDS011;1604;53.700;10.252;2023-08-06T14:12:54;6.17;;;2.90;;
3185;SDS011;1604;53.700;10.252;2023-08-06T14:15:56;5.47;;;3.30;;
3185;SDS011;1604;53.700;10.252;2023-08-06T14:18:59;6.70;;;3.03;;
3185;SDS011;1604;53.700;10.252;2023-08-06T14:22:01;3.70;;;3.50;;
3185;SDS011;1604;53.700;10.252;2023-08-06T14:25:03;4.17;;;3.30;;
3185;SDS011;1604;53.700;10.252;2023-08-06T14:28:06;3.93;;;3.63;;
3185;SDS011;1604;53.700;10.252;2023-08-06T14:31:08;4.43;;;3.23;;
3185;SDS011;1604;53.700;10.252;2023-08-06T14:34:11;4.10;;;3.70;;
3185;SDS011;1604;53.700;10.252;2023-08-06T14:37:14;5.20;;;3.50;;
3185;SDS011;1604;53.700;10.252;2023-08-06T14:40:17;6.70;;;4.10;;
3185;SDS011;1604;53.700;10.252;2023-08-06T14:43:19;14.07;;;4.20;;
3185;SDS011;1604;53.700;10.252;2023-08-06T14:46:21;3.50;;;3.20;;
3185;SDS011;1604;53.700;10.252;2023-08-06T14:49:24;3.50;;;3.30;;
3185;SDS011;1604;53.700;10.252;2023-08-06T14:52:26;4.40;;;3.60;;
3185;SDS011;1604;53.700;10.252;2023-08-06T14:55:28;3.30;;;3.00;;
3185;SDS011;1604;53.700;10.252;2023-08-06T14:58:30;3.60;;;3.30;;
3185;SDS011;1604;53.700;10.252;2023-08-06T15:01:32;5.53;;;3.27;;
3185;SDS011;1604;53.700;10.252;2023-08-06T15:04:38;5.93;;;4.07;;
3185;SDS011;1604;53.700;10.252;2023-08-06T15:07:40;8.50;;;3.50;;
3185;SDS011;1604;53.700;10.252;2023-08-06T15:10:42;4.70;;;3.70;;
3185;SDS011;1604;53.700;10.252;2023-08-06T15:13:52;7.60;;;4.57;;
3185;SDS011;1604;53.700;10.252;2023-08-06T15:16:54;5.27;;;4.13;;
3185;SDS011;1604;53.700;10.252;2023-08-06T15:19:58;4.50;;;4.10;;
3185;SDS011;1604;53.700;10.252;2023-08-06T15:23:00;5.50;;;5.07;;
3185;SDS011;1604;53.700;10.252;2023-08-06T15:26:02;4.80;;;4.30;;
3185;SDS011;1604;53.700;10.252;2023-08-06T15:29:04;7.23;;;4.47;;
3185;SDS011;1604;53.700;10.252;2023-08-06T15:32:06;4.77;;;4.37;;
3185;SDS011;1604;53.700;10.252;2023-08-06T15:35:10;6.20;;;3.90;;
3185;SDS011;1604;53.700;10.252;2023-08-06T15:38:12;4.70;;;4.30;;
3185;SDS011;1604;53.700;10.252;2023-08-06T15:41:14;4.47;;;4.13;;
3185;SDS011;1604;53.700;10.252;2023-08-06T15:44:16;7.33;;;4.10;;
3185;SDS011;1604;53.700;10.252;2023-08-06T15:47:18;5.27;;;4.77;;
3185;SDS011;1604;53.700;10.252;2023-08-06T15:50:21;7.97;;;4.03;;
3185;SDS011;1604;53.700;10.252;2023-08-06T15:53:23;4.80;;;4.40;;
3185;SDS011;1604;53.700;10.252;2023-08-06T15:56:25;4.50;;;4.03;;
3185;SDS011;1604;53.700;10.252;2023-08-06T15:59:28;7.57;;;3.53;;
3185;SDS011;1604;53.700;10.252;2023-08-06T16:02:31;4.70;;;4.20;;
3185;SDS011;1604;53.700;10.252;2023-08-06T16:05:35;11.57;;;5.30;;
3185;SDS011;1604;53.700;10.252;2023-08-06T16:08:37;6.13;;;5.53;;
3185;SDS011;1604;53.700;10.252;2023-08-06T16:11:39;4.47;;;4.00;;
3185;SDS011;1604;53.700;10.252;2023-08-06T16:14:41;9.53;;;3.83;;
3185;SDS011;1604;53.700;10.252;2023-08-06T16:17:43;5.17;;;4.87;;
3185;SDS011;1604;53.700;10.252;2023-08-06T16:20:46;9.63;;;3.67;;
3185;SDS011;1604;53.700;10.252;2023-08-06T16:23:48;4.03;;;3.80;;
3185;SDS011;1604;53.700;10.252;2023-08-06T16:26:50;6.47;;;3.90;;
3185;SDS011;1604;53.700;10.252;2023-08-06T16:29:52;7.87;;;5.10;;
3185;SDS011;1604;53.700;10.252;2023-08-06T16:32:54;10.03;;;4.20;;
3185;SDS011;1604;53.700;10.252;2023-08-06T16:35:57;11.00;;;4.33;;
3185;SDS011;1604;53.700;10.252;2023-08-06T16:39:00;4.53;;;4.03;;
3185;SDS011;1604;53.700;10.252;2023-08-06T16:42:03;4.80;;;4.40;;
3185;SDS011;1604;53.700;10.252;2023-08-06T16:45:10;6.70;;;4.03;;
3185;SDS011;1604;53.700;10.252;2023-08-06T16:48:12;4.27;;;3.87;;
3185;SDS011;1604;53.700;10.252;2023-08-06T16:51:15;5.60;;;4.40;;
3185;SDS011;1604;53.700;10.252;2023-08-06T16:54:17;4.93;;;4.53;;
3185;SDS011;1604;53.700;10.252;2023-08-06T16:57:19;7.63;;;4.73;;
3185;SDS011;1604;53.700;10.252;2023-08-06T17:00:21;5.70;;;4.30;;
3185;SDS011;1604;53.700;10.252;2023-08-06T17:03:23;5.30;;;4.80;;
3185;SDS011;1604;53.700;10.252;2023-08-06T17:06:26;8.33;;;3.70;;
3185;SDS011;1604;53.700;10.252;2023-08-06T17:09:28;4.57;;;4.17;;
3185;SDS011;1604;53.700;10.252;2023-08-06T17:12:30;4.83;;;4.43;;
3185;SDS011;1604;53.700;10.252;2023-08-06T17:15:32;4.70;;;4.20;;
3185;SDS011;1604;53.700;10.252;2023-08-06T17:18:37;6.23;;;4.60;;
3185;SDS011;1604;53.700;10.252;2023-08-06T17:21:41;4.53;;;4.07;;
3185;SDS011;1604;53.700;10.252;2023-08-06T17:24:42;4.17;;;3.80;;
3185;SDS011;1604;53.700;10.252;2023-08-06T17:27:45;8.87;;;5.03;;
3185;SDS011;1604;53.700;10.252;2023-08-06T17:30:47;4.37;;;3.87;;
3185;SDS011;1604;53.700;10.252;2023-08-06T17:33:49;5.97;;;4.47;;
3185;SDS011;1604;53.700;10.252;2023-08-06T17:36:53;4.03;;;3.73;;
3185;SDS011;1604;53.700;10.252;2023-08-06T17:39:55;7.30;;;4.20;;
3185;SDS011;1604;53.700;10.252;2023-08-06T17:42:57;6.67;;;3.80;;
3185;SDS011;1604;53.700;10.252;2023-08-06T17:45:59;7.40;;;4.20;;
3185;SDS011;1604;53.700;10.252;2023-08-06T17:49:01;6.63;;;3.60;;
3185;SDS011;1604;53.700;10.252;2023-08-06T17:52:04;7.30;;;4.30;;
3185;SDS011;1604;53.700;10.252;2023-08-06T17:55:07;3.80;;;3.20;;
3185;SDS011;1604;53.700;10.252;2023-08-06T17:58:09;3.50;;;3.30;;
3185;SDS011;1604;53.700;10.252;2023-08-06T18:01:11;7.47;;;3.10;;
3185;SDS011;1604;53.700;10.252;2023-08-06T18:04:13;3.13;;;2.93;;
3185;SDS011;1604;53.700;10.252;2023-08-06T18:07:17;5.93;;;2.77;;
3185;SDS011;1604;53.700;10.252;2023-08-06T18:10:19;3.97;;;3.67;;
3185;SDS011;1604;53.700;10.252;2023-08-06T18:13:21;7.60;;;3.70;;
3185;SDS011;1604;53.700;10.252;2023-08-06T18:16:26;4.90;;;3.43;;
3185;SDS011;1604;53.700;10.252;2023-08-06T18:19:29;4.23;;;3.83;;
3185;SDS011;1604;53.700;10.252;2023-08-06T18:22:35;3.80;;;3.47;;
3185;SDS011;1604;53.700;10.252;2023-08-06T18:25:38;4.20;;;3.33;;
3185;SDS011;1604;53.700;10.252;2023-08-06T18:28:40;8.53;;;3.00;;
3185;SDS011;1604;53.700;10.252;2023-08-06T18:31:44;8.10;;;4.23;;
3185;SDS011;1604;53.700;10.252;2023-08-06T18:34:47;10.97;;;3.20;;
3185;SDS011;1604;53.700;10.252;2023-08-06T18:37:52;4.63;;;2.90;;